Time;durP1;ratioP1;P1;durP2;ratioP2;P2;SDS_P1;SDS_P2;PMS_P1;PMS_P2;Temp;Humidity;BMP_temperature;BMP_pressure;BME280_temperature;BME280_humidity;BME280_pressure;Samples;Min_cycle;Max_cycle;Signal;HPM_P1;HPM_P2
2022/11/23 00:01:38;;;;;;;2.90;1.10;;;19.60;54.30;;;;;;4898660;29;20128;-74
2022/11/23 00:04:10;;;;;;;2.10;1.15;;;19.60;54.30;;;;;;4900540;29;20048;-77
2022/11/23 00:06:37;;;;;;;3.47;1.15;;;19.60;54.30;;;;;;4919852;29;20052;-74
2022/11/23 00:09:03;;;;;;;2.65;1.10;;;19.60;54.40;;;;;;4895372;29;20068;-75
2022/11/23 00:11:28;;;;;;;3.85;1.20;;;19.60;54.40;;;;;;4898265;29;20080;-78
2022/11/23 00:13:54;;;;;;;2.92;1.20;;;19.60;54.30;;;;;;4892296;29;20043;-75
2022/11/23 00:16:26;;;;;;;1.30;1.00;;;19.60;54.30;;;;;;4892946;29;20058;-75
2022/11/23 00:19:01;;;;;;;2.00;1.30;;;19.60;54.30;;;;;;4901997;29;20083;-75
2022/11/23 00:21:29;;;;;;;1.52;1.00;;;19.60;54.30;;;;;;4897896;29;20075;-74
2022/11/23 00:23:55;;;;;;;2.45;1.02;;;19.50;54.20;;;;;;4899745;29;20048;-73
2022/11/23 00:26:21;;;;;;;2.95;1.30;;;19.50;54.20;;;;;;4897593;29;20529;-76
2022/11/23 00:28:47;;;;;;;3.50;1.00;;;19.50;54.20;;;;;;4893233;29;20630;-74
2022/11/23 00:31:15;;;;;;;1.77;0.90;;;19.50;54.20;;;;;;4896929;29;20099;-77
2022/11/23 00:33:42;;;;;;;1.88;1.00;;;19.50;54.20;;;;;;4900009;29;20135;-76
2022/11/23 00:36:11;;;;;;;2.30;1.08;;;19.50;54.20;;;;;;4897611;29;20070;-74
2022/11/23 00:38:37;;;;;;;1.42;0.90;;;19.50;54.20;;;;;;4898673;29;20086;-74
2022/11/23 00:41:05;;;;;;;1.20;1.00;;;19.50;54.10;;;;;;4894956;29;20487;-75
2022/11/23 00:43:31;;;;;;;1.20;0.93;;;19.50;54.90;;;;;;4902463;29;20040;-75
2022/11/23 00:46:21;;;;;;;2.08;1.02;;;19.50;54.10;;;;;;4914118;29;20040;-74
2022/11/23 00:48:49;;;;;;;1.63;0.93;;;19.50;54.10;;;;;;4895197;29;20539;-75
2022/11/23 00:51:20;;;;;;;2.22;1.10;;;19.50;54.10;;;;;;4893553;29;20048;-76
2022/11/23 00:53:46;;;;;;;1.65;0.90;;;19.50;54.10;;;;;;4912868;29;20044;-73
2022/11/23 00:56:12;;;;;;;1.40;1.02;;;19.50;54.10;;;;;;4915646;29;20163;-75
2022/11/23 00:58:38;;;;;;;1.25;0.88;;;19.50;54.00;;;;;;4893918;29;20048;-74
2022/11/23 01:01:06;;;;;;;2.25;0.80;;;19.50;54.00;;;;;;4891526;29;20075;-74
2022/11/23 01:03:31;;;;;;;2.55;1.00;;;19.50;54.00;;;;;;4896868;29;20048;-74
2022/11/23 01:06:11;;;;;;;2.50;1.00;;;19.50;54.00;;;;;;4915275;29;20774;-76
2022/11/23 01:08:37;;;;;;;1.38;0.80;;;19.50;54.00;;;;;;4898755;29;20067;-74
2022/11/23 01:11:06;;;;;;;2.22;0.90;;;19.50;54.00;;;;;;4915868;29;20052;-74
2022/11/23 01:13:32;;;;;;;1.35;0.80;;;19.50;53.90;;;;;;4898581;29;20059;-74
2022/11/23 01:15:58;;;;;;;2.70;1.10;;;19.50;53.90;;;;;;4897762;29;20039;-74
2022/11/23 01:18:24;;;;;;;1.95;0.85;;;19.50;53.90;;;;;;4894946;29;20150;-74
2022/11/23 01:20:50;;;;;;;2.97;0.70;;;19.50;53.90;;;;;;4893252;29;20052;-73
2022/11/23 01:23:15;;;;;;;2.42;0.90;;;19.50;53.90;;;;;;4901211;29;20150;-74
2022/11/23 01:25:41;;;;;;;2.05;1.10;;;19.50;53.90;;;;;;4902449;29;20039;-75
2022/11/23 01:28:07;;;;;;;2.70;0.90;;;19.50;53.80;;;;;;4911870;29;20075;-74
2022/11/23 01:30:33;;;;;;;2.17;0.90;;;19.50;53.80;;;;;;4896053;29;20047;-74
2022/11/23 01:32:59;;;;;;;1.90;0.90;;;19.50;53.80;;;;;;4897484;29;20063;-72
2022/11/23 01:35:24;;;;;;;1.80;0.80;;;19.50;53.70;;;;;;4882694;29;20052;-74
2022/11/23 01:37:50;;;;;;;2.72;0.80;;;19.50;53.70;;;;;;4894177;29;21179;-76
2022/11/23 01:40:16;;;;;;;1.98;0.82;;;19.50;53.70;;;;;;4899487;29;20078;-74
2022/11/23 01:42:50;;;;;;;1.60;1.08;;;19.50;53.70;;;;;;4918027;29;20044;-74
2022/11/23 01:45:37;;;;;;;2.10;1.10;;;19.60;53.70;;;;;;4898125;29;20108;-75
2022/11/23 01:48:24;;;;;;;1.27;0.70;;;19.50;53.60;;;;;;4897322;29;20055;-74
2022/11/23 01:50:52;;;;;;;1.08;0.90;;;19.60;53.60;;;;;;4897014;29;20048;-75
2022/11/23 01:53:19;;;;;;;1.38;0.70;;;19.60;53.60;;;;;;4902414;29;20159;-74
2022/11/23 01:55:46;;;;;;;2.63;0.90;;;19.50;53.50;;;;;;4914829;29;20066;-74
2022/11/23 01:58:15;;;;;;;1.92;0.98;;;19.60;53.50;;;;;;4895385;29;20047;-75
2022/11/23 02:00:41;;;;;;;1.40;0.95;;;19.60;53.50;;;;;;4914843;29;20047;-74
2022/11/23 02:03:08;;;;;;;2.30;0.80;;;19.60;53.60;;;;;;4916360;29;20044;-74
2022/11/23 02:05:42;;;;;;;2.25;0.90;;;19.60;53.50;;;;;;4904696;29;20082;-74
2022/11/23 02:08:08;;;;;;;1.73;0.90;;;19.60;53.50;;;;;;4895264;29;21720;-75
2022/11/23 02:10:35;;;;;;;1.52;0.80;;;19.60;53.50;;;;;;4900027;29;20100;-74
2022/11/23 02:13:07;;;;;;;2.92;1.13;;;19.60;53.50;;;;;;4901688;29;20139;-75
2022/11/23 02:15:34;;;;;;;1.17;0.80;;;19.50;53.50;;;;;;4901255;29;20059;-76
2022/11/23 02:18:03;;;;;;;1.88;0.90;;;19.50;53.50;;;;;;4898420;29;20047;-74
2022/11/23 02:20:29;;;;;;;0.98;0.70;;;19.50;53.40;;;;;;4896343;29;20056;-74
2022/11/23 02:23:14;;;;;;;1.73;0.80;;;19.60;53.50;;;;;;4900533;29;20203;-74
2022/11/23 02:25:42;;;;;;;2.47;0.90;;;19.50;53.50;;;;;;4903423;29;20362;-74
2022/11/23 02:28:20;;;;;;;1.35;0.90;;;19.50;53.40;;;;;;4884634;29;20092;-74
2022/11/23 02:30:50;;;;;;;2.20;0.90;;;19.60;53.50;;;;;;4899361;29;20052;-75
2022/11/23 02:33:15;;;;;;;2.03;0.70;;;19.50;53.40;;;;;;4898286;29;20048;-74
2022/11/23 02:35:53;;;;;;;1.10;0.70;;;19.60;53.50;;;;;;4899214;29;20055;-75
2022/11/23 02:38:20;;;;;;;1.63;0.77;;;19.60;53.40;;;;;;4899355;29;20063;-75
2022/11/23 02:40:46;;;;;;;0.77;0.70;;;19.50;53.40;;;;;;4896089;29;20056;-74
2022/11/23 02:43:12;;;;;;;1.65;0.80;;;19.50;54.10;;;;;;4899328;29;20042;-74
2022/11/23 02:45:40;;;;;;;1.92;0.90;;;19.60;53.40;;;;;;4901621;29;20392;-75
2022/11/23 02:48:05;;;;;;;1.60;0.90;;;19.60;53.40;;;;;;4898531;29;20047;-74
2022/11/23 02:50:31;;;;;;;1.85;0.80;;;19.60;53.30;;;;;;4885605;29;20045;-77
2022/11/23 02:52:57;;;;;;;2.45;0.90;;;19.60;53.30;;;;;;4873992;29;20076;-74
2022/11/23 02:55:23;;;;;;;1.30;0.80;;;19.60;53.40;;;;;;4900242;29;20060;-75
2022/11/23 02:57:48;;;;;;;1.00;0.80;;;19.60;53.40;;;;;;4899610;29;20087;-74
2022/11/23 03:00:15;;;;;;;1.95;0.70;;;19.60;53.40;;;;;;4877643;29;20068;-76
2022/11/23 03:02:40;;;;;;;1.13;0.90;;;19.60;53.30;;;;;;4902283;29;20593;-75
2022/11/23 03:05:06;;;;;;;1.20;0.60;;;19.60;53.30;;;;;;4903201;29;20046;-74
2022/11/23 03:07:32;;;;;;;1.60;0.70;;;19.60;53.40;;;;;;4901045;29;20055;-76
2022/11/23 03:09:58;;;;;;;1.67;0.98;;;19.60;53.40;;;;;;4883701;29;20473;-75
2022/11/23 03:12:24;;;;;;;1.77;0.80;;;19.60;53.30;;;;;;4877387;29;20048;-76
2022/11/23 03:14:49;;;;;;;0.98;0.68;;;19.60;53.30;;;;;;4899562;29;20040;-74
2022/11/23 03:17:15;;;;;;;1.45;0.90;;;19.60;53.30;;;;;;4901872;29;20054;-77
2022/11/23 03:19:40;;;;;;;0.77;0.70;;;19.50;53.20;;;;;;4898960;29;20757;-75
2022/11/23 03:22:06;;;;;;;0.82;0.60;;;19.60;53.30;;;;;;4897324;29;21523;-74
2022/11/23 03:24:32;;;;;;;1.17;0.68;;;19.50;53.20;;;;;;4899618;29;20113;-74
2022/11/23 03:26:58;;;;;;;1.75;0.82;;;19.60;53.20;;;;;;4899725;29;20039;-75
2022/11/23 03:29:25;;;;;;;1.88;0.85;;;19.60;53.20;;;;;;4898077;29;20044;-74
2022/11/23 03:31:54;;;;;;;1.95;0.77;;;19.60;53.30;;;;;;4897545;29;20111;-74
2022/11/23 03:34:19;;;;;;;1.27;0.60;;;19.60;53.30;;;;;;4901903;29;20515;-75
2022/11/23 03:36:45;;;;;;;1.10;0.80;;;19.60;53.30;;;;;;4900712;29;20067;-75
2022/11/23 03:39:11;;;;;;;1.00;0.75;;;19.50;53.20;;;;;;4902017;29;20044;-74
2022/11/23 03:41:36;;;;;;;1.25;0.57;;;19.50;53.20;;;;;;4887586;29;20111;-75
2022/11/23 03:44:02;;;;;;;1.20;0.68;;;19.60;53.20;;;;;;4902063;29;20047;-76
2022/11/23 03:46:28;;;;;;;1.58;0.80;;;19.60;53.30;;;;;;4888686;29;20112;-76
2022/11/23 03:48:54;;;;;;;1.15;0.60;;;19.50;53.20;;;;;;4899016;29;20080;-75
2022/11/23 03:51:19;;;;;;;1.95;0.80;;;19.60;53.30;;;;;;4919126;29;20107;-75
2022/11/23 03:53:45;;;;;;;1.95;0.65;;;19.60;53.30;;;;;;4919921;29;20059;-74
2022/11/23 03:56:11;;;;;;;2.20;0.60;;;19.60;53.20;;;;;;4903572;29;20056;-75
2022/11/23 03:58:36;;;;;;;1.13;0.75;;;19.50;54.00;;;;;;4903160;29;20043;-75
2022/11/23 04:01:02;;;;;;;0.88;0.60;;;19.60;53.20;;;;;;4919536;29;20408;-75
2022/11/23 04:03:27;;;;;;;1.55;0.50;;;19.50;53.20;;;;;;4916388;29;20048;-76
2022/11/23 04:05:53;;;;;;;1.52;0.90;;;19.50;53.30;;;;;;4920243;29;20054;-75
2022/11/23 04:08:18;;;;;;;1.10;0.80;;;19.50;53.20;;;;;;4887335;29;20531;-74
2022/11/23 04:10:44;;;;;;;1.50;0.80;;;19.50;53.20;;;;;;4901041;29;20521;-75
2022/11/23 04:13:10;;;;;;;2.33;0.82;;;19.60;53.30;;;;;;4900077;29;20107;-75
2022/11/23 04:15:35;;;;;;;2.00;0.80;;;19.50;53.20;;;;;;4886248;29;20044;-74
2022/11/23 04:18:01;;;;;;;1.15;0.75;;;19.50;53.20;;;;;;4903491;29;21083;-74
2022/11/23 04:20:26;;;;;;;1.05;0.50;;;19.50;53.20;;;;;;4900507;29;20535;-75
2022/11/23 04:22:52;;;;;;;1.67;0.80;;;19.50;53.20;;;;;;4900593;29;20055;-75
2022/11/23 04:25:18;;;;;;;1.15;0.70;;;19.50;53.20;;;;;;4902466;29;20381;-75
2022/11/23 04:27:44;;;;;;;1.35;0.70;;;19.60;53.20;;;;;;4900099;29;20055;-75
2022/11/23 04:30:11;;;;;;;0.98;0.45;;;19.50;53.20;;;;;;4900856;29;20043;-74
2022/11/23 04:32:36;;;;;;;2.05;0.80;;;19.50;53.20;;;;;;4899185;29;20060;-75
2022/11/23 04:35:02;;;;;;;1.95;0.80;;;19.50;53.20;;;;;;4896024;29;20436;-74
2022/11/23 04:37:28;;;;;;;1.63;0.70;;;19.50;53.20;;;;;;4899588;29;20052;-74
2022/11/23 04:39:54;;;;;;;0.88;0.70;;;19.50;53.20;;;;;;4899514;29;20054;-75
2022/11/23 04:42:19;;;;;;;1.42;0.80;;;19.50;53.20;;;;;;4900658;29;20518;-74
2022/11/23 04:44:45;;;;;;;0.82;0.60;;;19.50;53.20;;;;;;4919314;29;20769;-75
2022/11/23 04:47:11;;;;;;;2.88;1.00;;;19.60;53.20;;;;;;4920032;29;20039;-75
2022/11/23 04:49:37;;;;;;;0.88;0.65;;;19.60;53.30;;;;;;4916599;29;20043;-74
2022/11/23 04:52:03;;;;;;;0.98;0.77;;;19.50;53.20;;;;;;4900826;29;20086;-75
2022/11/23 04:54:29;;;;;;;1.63;0.73;;;19.50;53.20;;;;;;4900641;29;20526;-75
2022/11/23 04:56:55;;;;;;;2.75;0.90;;;19.60;53.20;;;;;;4901341;29;20043;-74
2022/11/23 04:59:21;;;;;;;1.17;0.70;;;19.50;53.20;;;;;;4902004;29;20043;-74
2022/11/23 05:01:47;;;;;;;1.98;0.90;;;19.50;53.20;;;;;;4901478;29;20413;-74
2022/11/23 05:04:14;;;;;;;1.63;0.88;;;19.60;53.40;;;;;;4901811;29;20042;-75
2022/11/23 05:06:39;;;;;;;2.08;0.80;;;19.50;53.20;;;;;;4903550;29;20071;-75
2022/11/23 05:09:05;;;;;;;1.48;0.75;;;19.60;53.20;;;;;;4896896;29;20752;-75
2022/11/23 05:11:30;;;;;;;1.38;0.73;;;19.50;53.20;;;;;;4896351;29;20047;-76
2022/11/23 05:13:56;;;;;;;1.40;0.95;;;19.60;53.20;;;;;;4920187;29;20040;-74
2022/11/23 05:16:22;;;;;;;1.23;0.70;;;19.50;53.20;;;;;;4904665;29;20051;-74
2022/11/23 05:18:47;;;;;;;1.92;0.82;;;19.60;53.20;;;;;;4903910;29;20063;-74
2022/11/23 05:21:13;;;;;;;0.90;0.80;;;19.60;53.20;;;;;;4900280;29;20050;-75
2022/11/23 05:23:38;;;;;;;0.93;0.80;;;19.50;53.10;;;;;;4922092;29;21027;-74
2022/11/23 05:26:04;;;;;;;1.60;0.85;;;19.50;53.20;;;;;;4904438;29;20445;-75
2022/11/23 05:28:29;;;;;;;1.38;0.95;;;19.60;53.20;;;;;;4900721;29;20040;-75
2022/11/23 05:30:55;;;;;;;1.25;0.70;;;19.50;53.10;;;;;;4906021;29;20180;-74
2022/11/23 05:33:21;;;;;;;1.20;0.80;;;19.60;53.20;;;;;;4917885;29;20527;-75
2022/11/23 05:35:46;;;;;;;2.75;0.90;;;19.60;53.10;;;;;;4904770;29;20079;-74
2022/11/23 05:38:12;;;;;;;1.08;0.70;;;19.60;53.10;;;;;;4900357;29;20047;-74
2022/11/23 05:40:38;;;;;;;1.65;1.00;;;19.60;53.10;;;;;;4891357;29;20186;-75
2022/11/23 05:43:04;;;;;;;1.33;0.80;;;19.60;53.10;;;;;;4920190;29;20047;-76
2022/11/23 05:45:29;;;;;;;1.27;0.82;;;19.60;53.10;;;;;;4901891;29;20043;-75
2022/11/23 05:47:57;;;;;;;1.65;0.80;;;19.60;53.10;;;;;;4902579;29;20070;-74
2022/11/23 05:50:24;;;;;;;1.27;0.70;;;19.60;53.10;;;;;;4901072;29;20784;-74
2022/11/23 05:52:49;;;;;;;3.05;0.85;;;19.60;53.10;;;;;;4904106;29;20078;-76
2022/11/23 05:55:15;;;;;;;0.95;0.85;;;19.60;53.10;;;;;;4903733;29;20527;-74
2022/11/23 05:57:40;;;;;;;2.30;1.02;;;19.60;53.10;;;;;;4904541;29;20385;-74
2022/11/23 06:00:09;;;;;;;2.00;0.73;;;19.60;53.10;;;;;;4889653;29;20036;-74
2022/11/23 06:02:35;;;;;;;2.90;0.85;;;19.60;53.10;;;;;;4899834;29;20042;-75
2022/11/23 06:05:01;;;;;;;1.13;0.80;;;19.60;53.10;;;;;;4921435;29;20496;-74
2022/11/23 06:07:26;;;;;;;1.70;0.95;;;19.60;53.10;;;;;;4897783;29;20044;-74
2022/11/23 06:09:52;;;;;;;0.93;0.65;;;19.60;53.10;;;;;;4913980;29;20087;-75
2022/11/23 06:12:17;;;;;;;1.33;0.90;;;19.60;53.10;;;;;;4898773;29;21051;-73
2022/11/23 06:14:43;;;;;;;1.77;0.93;;;19.60;53.80;;;;;;4917592;29;21064;-74
2022/11/23 06:17:09;;;;;;;1.52;0.70;;;19.60;53.10;;;;;;4898864;29;20067;-74
2022/11/23 06:19:34;;;;;;;2.17;0.70;;;19.60;53.10;;;;;;4884010;29;20918;-75
2022/11/23 06:22:00;;;;;;;1.20;0.80;;;19.60;53.10;;;;;;4884670;29;20059;-74
2022/11/23 06:24:25;;;;;;;1.60;0.80;;;19.60;53.10;;;;;;4900195;29;20122;-75
2022/11/23 06:26:51;;;;;;;2.35;1.25;;;19.60;53.10;;;;;;4900527;29;20744;-74
2022/11/23 06:29:18;;;;;;;2.10;0.70;;;19.60;53.10;;;;;;4899311;29;20048;-74
2022/11/23 06:31:44;;;;;;;1.90;0.80;;;19.60;53.10;;;;;;4902420;29;20109;-74
2022/11/23 06:34:09;;;;;;;1.92;0.90;;;19.60;53.10;;;;;;4898183;29;20040;-74
2022/11/23 06:36:35;;;;;;;1.50;0.80;;;19.60;53.10;;;;;;4895690;29;20086;-74
2022/11/23 06:39:00;;;;;;;3.55;1.00;;;19.60;53.10;;;;;;4915569;29;20047;-74
2022/11/23 06:41:26;;;;;;;2.95;1.02;;;19.50;53.00;;;;;;4901848;29;20047;-74
2022/11/23 06:43:51;;;;;;;1.88;0.80;;;19.50;53.00;;;;;;4900006;29;20055;-74
2022/11/23 06:46:17;;;;;;;2.35;0.90;;;19.60;53.10;;;;;;4902537;29;20852;-74
2022/11/23 06:48:44;;;;;;;2.28;0.90;;;19.60;53.10;;;;;;4901937;29;20052;-78
2022/11/23 06:51:09;;;;;;;1.10;0.68;;;19.60;53.10;;;;;;4912225;29;20099;-75
2022/11/23 06:53:35;;;;;;;1.77;0.95;;;19.50;53.00;;;;;;4910582;29;20082;-78
2022/11/23 06:56:01;;;;;;;4.13;0.88;;;19.50;53.20;;;;;;4900195;29;20643;-74
2022/11/23 06:58:27;;;;;;;1.50;0.98;;;19.60;53.00;;;;;;4898231;29;20673;-76
2022/11/23 07:00:53;;;;;;;7.30;0.93;;;19.60;53.10;;;;;;4883623;29;20040;-74
2022/11/23 07:03:21;;;;;;;4.85;1.05;;;19.60;53.10;;;;;;4916821;29;20075;-73
2022/11/23 07:05:47;;;;;;;6.60;1.30;;;19.60;53.20;;;;;;4895762;29;20215;-75
2022/11/23 07:08:12;;;;;;;4.03;1.30;;;19.50;53.20;;;;;;4897365;29;20518;-75
2022/11/23 07:10:38;;;;;;;6.28;1.30;;;19.50;53.30;;;;;;4899900;29;20056;-75
2022/11/23 07:13:05;;;;;;;5.88;1.10;;;19.50;53.40;;;;;;4913349;29;20035;-75
2022/11/23 07:15:31;;;;;;;5.28;1.00;;;19.50;53.40;;;;;;4901727;29;20051;-76
2022/11/23 07:17:57;;;;;;;5.95;1.10;;;19.50;53.40;;;;;;4893974;29;20052;-75
2022/11/23 07:20:23;;;;;;;4.25;0.90;;;19.50;53.50;;;;;;4918805;29;20047;-75
2022/11/23 07:23:02;;;;;;;2.72;1.00;;;19.50;53.50;;;;;;4899774;29;20051;-76
2022/11/23 07:25:29;;;;;;;2.35;1.00;;;19.60;53.70;;;;;;4886568;29;20224;-75
2022/11/23 07:27:59;;;;;;;5.20;1.05;;;19.50;53.50;;;;;;4900879;29;20122;-76
2022/11/23 07:30:25;;;;;;;3.55;0.93;;;19.50;53.40;;;;;;4897826;29;20062;-75
2022/11/23 07:32:51;;;;;;;2.67;0.88;;;19.60;53.50;;;;;;4899908;29;20048;-75
2022/11/23 07:35:18;;;;;;;5.75;1.15;;;19.50;53.40;;;;;;4895081;29;20051;-72
2022/11/23 07:37:44;;;;;;;1.60;1.00;;;19.50;53.50;;;;;;4892482;29;20059;-70
2022/11/23 07:40:10;;;;;;;2.10;0.93;;;19.60;53.60;;;;;;4900383;29;21792;-70
2022/11/23 07:42:35;;;;;;;3.85;1.02;;;19.60;53.80;;;;;;4913214;29;20040;-71
2022/11/23 07:45:02;;;;;;;3.33;1.20;;;19.60;53.90;;;;;;4919994;29;20194;-71
2022/11/23 07:47:28;;;;;;;4.00;0.95;;;19.60;53.90;;;;;;4895331;29;20047;-71
2022/11/23 07:49:53;;;;;;;3.78;1.15;;;19.60;54.00;;;;;;4902103;29;20043;-72
2022/11/23 07:52:19;;;;;;;3.10;1.00;;;19.60;54.00;;;;;;4916518;29;20043;-70
2022/11/23 07:54:44;;;;;;;3.85;1.10;;;19.70;54.10;;;;;;4900096;29;20583;-69
2022/11/23 07:57:10;;;;;;;2.22;0.98;;;19.70;54.10;;;;;;4913556;29;20111;-70
2022/11/23 07:59:36;;;;;;;3.88;1.25;;;19.70;54.00;;;;;;4914033;29;20039;-71
2022/11/23 08:02:01;;;;;;;3.80;1.00;;;19.70;54.00;;;;;;4897705;29;20046;-70
2022/11/23 08:04:30;;;;;;;6.65;1.05;;;19.70;54.00;;;;;;4897753;29;20649;-71
2022/11/23 08:06:56;;;;;;;3.10;1.08;;;19.70;54.00;;;;;;4896070;29;20058;-71
2022/11/23 08:09:24;;;;;;;4.95;1.25;;;19.70;54.00;;;;;;4917021;29;20055;-71
2022/11/23 08:11:50;;;;;;;1.83;1.00;;;19.70;54.00;;;;;;4896944;29;20062;-70
2022/11/23 08:14:16;;;;;;;2.88;1.00;;;19.70;54.00;;;;;;4913066;29;20050;-72
2022/11/23 08:16:41;;;;;;;3.30;1.00;;;19.80;54.10;;;;;;4898224;29;20044;-73
2022/11/23 08:19:07;;;;;;;4.72;1.10;;;19.70;54.00;;;;;;4894123;29;20040;-72
2022/11/23 08:21:32;;;;;;;5.07;1.25;;;19.80;54.10;;;;;;4915529;29;20051;-73
2022/11/23 08:23:58;;;;;;;6.57;1.30;;;19.80;54.10;;;;;;4917348;29;20044;-73
2022/11/23 08:26:24;;;;;;;2.97;0.93;;;19.80;54.10;;;;;;4895539;29;20226;-72
2022/11/23 08:28:49;;;;;;;5.07;1.38;;;19.80;54.00;;;;;;4897426;29;20075;-73
2022/11/23 08:31:15;;;;;;;2.00;0.90;;;19.80;54.00;;;;;;4902073;29;20522;-73
2022/11/23 08:33:40;;;;;;;3.72;1.15;;;19.80;54.00;;;;;;4898029;29;20475;-72
2022/11/23 08:36:07;;;;;;;2.33;1.00;;;19.80;54.00;;;;;;4897471;29;20057;-73
2022/11/23 08:38:33;;;;;;;3.40;0.95;;;19.80;54.00;;;;;;4912474;29;20150;-73
2022/11/23 08:41:00;;;;;;;3.25;1.10;;;19.80;54.00;;;;;;4892466;29;20047;-72
2022/11/23 08:43:26;;;;;;;5.45;0.98;;;19.80;54.00;;;;;;4896500;29;20046;-71
2022/11/23 08:45:56;;;;;;;7.22;1.23;;;19.70;54.00;;;;;;4901975;29;20516;-72
2022/11/23 08:48:22;;;;;;;1.58;0.77;;;19.80;54.20;;;;;;4895627;29;20051;-72
2022/11/23 08:50:48;;;;;;;3.35;1.15;;;19.70;54.30;;;;;;4895655;29;20063;-72
2022/11/23 08:53:13;;;;;;;3.28;1.17;;;19.80;54.40;;;;;;4893922;29;20052;-73
2022/11/23 08:55:39;;;;;;;2.78;1.00;;;19.80;54.50;;;;;;4883150;29;20771;-73
2022/11/23 08:58:06;;;;;;;5.85;1.10;;;19.80;54.60;;;;;;4881450;29;20043;-72
2022/11/23 09:00:31;;;;;;;4.18;1.10;;;19.80;54.60;;;;;;4898393;29;20499;-73
2022/11/23 09:02:58;;;;;;;3.10;1.13;;;19.70;54.50;;;;;;4898197;29;20051;-73
2022/11/23 09:05:24;;;;;;;4.57;1.20;;;19.80;54.60;;;;;;4914390;29;20036;-73
2022/11/23 09:07:49;;;;;;;3.20;1.35;;;19.80;54.60;;;;;;4900683;29;20483;-73
2022/11/23 09:10:16;;;;;;;2.97;1.17;;;19.80;54.60;;;;;;4912088;29;20043;-72
2022/11/23 09:12:42;;;;;;;5.60;1.10;;;19.80;54.60;;;;;;4901095;29;20051;-71
2022/11/23 09:15:08;;;;;;;4.53;0.98;;;19.80;54.60;;;;;;4896698;29;20046;-71
2022/11/23 09:17:34;;;;;;;2.50;1.40;;;19.80;54.60;;;;;;4895816;29;20095;-73
2022/11/23 09:20:00;;;;;;;3.55;1.00;;;19.90;54.60;;;;;;4878173;29;20059;-72
2022/11/23 09:22:26;;;;;;;3.45;1.15;;;19.80;54.50;;;;;;4897312;29;20048;-72
2022/11/23 09:24:52;;;;;;;3.78;1.10;;;19.80;54.40;;;;;;4896583;29;20098;-72
2022/11/23 09:27:18;;;;;;;2.72;1.00;;;19.80;54.40;;;;;;4914173;29;20066;-72
2022/11/23 09:29:43;;;;;;;3.55;1.13;;;19.80;54.40;;;;;;4890048;29;20500;-74
2022/11/23 09:32:09;;;;;;;1.92;0.88;;;19.80;54.40;;;;;;4908719;29;20058;-72
2022/11/23 09:34:35;;;;;;;2.15;0.88;;;19.80;54.50;;;;;;4888643;29;20063;-72
2022/11/23 09:37:03;;;;;;;5.20;1.00;;;19.80;54.40;;;;;;4906954;29;20040;-72
2022/11/23 09:39:29;;;;;;;3.72;1.23;;;19.80;54.40;;;;;;4890702;29;20502;-72
2022/11/23 09:42:16;;;;;;;3.40;1.08;;;19.70;54.40;;;;;;4910193;29;20143;-72
2022/11/23 09:45:17;;;;;;;3.72;1.30;;;19.70;54.30;;;;;;4893763;29;20070;-73
2022/11/23 09:48:07;;;;;;;3.58;0.85;;;19.70;54.30;;;;;;4894538;29;20413;-72
2022/11/23 09:50:47;;;;;;;3.47;0.90;;;19.70;54.30;;;;;;4899919;29;20166;-72
2022/11/23 09:53:23;;;;;;;2.83;1.15;;;19.70;54.40;;;;;;4894710;29;20046;-72
2022/11/23 09:55:52;;;;;;;2.60;0.98;;;19.70;54.40;;;;;;4913232;29;20095;-72
2022/11/23 09:58:24;;;;;;;4.65;1.00;;;19.70;54.40;;;;;;4892403;29;20126;-73
2022/11/23 10:00:54;;;;;;;2.80;1.25;;;19.60;54.30;;;;;;4911715;28;20044;-72
2022/11/23 10:03:20;;;;;;;3.30;0.93;;;19.70;54.40;;;;;;4901465;29;20518;-71
2022/11/23 10:05:59;;;;;;;3.00;1.00;;;19.80;54.50;;;;;;4899852;29;20040;-71
2022/11/23 10:08:56;;;;;;;3.97;1.33;;;19.70;54.40;;;;;;4917440;29;20139;-72
2022/11/23 10:11:31;;;;;;;4.77;1.13;;;19.70;54.40;;;;;;4918161;29;20190;-72
2022/11/23 10:14:15;;;;;;;3.03;0.82;;;19.70;54.40;;;;;;4904289;29;20315;-71
2022/11/23 10:16:56;;;;;;;2.30;1.02;;;19.70;54.50;;;;;;4901629;29;20134;-72
2022/11/23 10:19:44;;;;;;;3.33;1.10;;;19.70;54.40;;;;;;4897073;29;20547;-71
2022/11/23 10:22:19;;;;;;;4.60;1.17;;;19.70;54.40;;;;;;4900287;29;20077;-71
2022/11/23 10:24:50;;;;;;;3.92;1.10;;;19.80;54.40;;;;;;4895534;29;20052;-71
2022/11/23 10:27:18;;;;;;;2.63;0.85;;;19.80;54.50;;;;;;4896509;29;20048;-71
2022/11/23 10:29:45;;;;;;;3.03;1.02;;;19.70;54.40;;;;;;4895274;29;20051;-71
2022/11/23 10:32:31;;;;;;;1.95;1.08;;;19.80;54.50;;;;;;4917440;29;20074;-73
2022/11/23 10:35:10;;;;;;;7.78;1.33;;;19.80;54.50;;;;;;4898521;29;20076;-71
2022/11/23 10:37:38;;;;;;;4.82;1.02;;;19.80;54.40;;;;;;4914455;29;20067;-71
2022/11/23 10:40:17;;;;;;;2.75;1.05;;;19.80;54.40;;;;;;4902520;29;20047;-71
2022/11/23 10:42:51;;;;;;;3.67;1.10;;;19.80;54.40;;;;;;4896784;29;20040;-74
2022/11/23 10:45:25;;;;;;;2.53;1.10;;;19.80;54.40;;;;;;4901338;29;20054;-71
2022/11/23 10:47:58;;;;;;;4.93;1.45;;;19.80;54.50;;;;;;4916359;29;20052;-71
2022/11/23 10:50:39;;;;;;;7.30;1.08;;;19.80;54.60;;;;;;4918090;29;20052;-71
2022/11/23 10:53:04;;;;;;;6.57;1.20;;;19.80;54.70;;;;;;4900865;29;20314;-70
2022/11/23 10:55:32;;;;;;;5.97;1.00;;;19.80;54.70;;;;;;4923648;29;20543;-71
2022/11/23 10:57:59;;;;;;;4.05;1.30;;;19.80;54.80;;;;;;4919221;29;20055;-72
2022/11/23 11:00:27;;;;;;;3.92;1.15;;;19.80;54.80;;;;;;4897218;29;20089;-72
2022/11/23 11:02:55;;;;;;;3.58;1.40;;;19.80;54.80;;;;;;4915455;29;20051;-70
2022/11/23 11:05:33;;;;;;;;;;;19.80;54.90;;;;;;4899910;29;20070;-71
2022/11/23 11:08:14;;;;;;;2.10;1.00;;;19.80;54.90;;;;;;4916680;29;20045;-71
2022/11/23 11:10:50;;;;;;;3.30;0.98;;;19.80;55.00;;;;;;4901294;29;20240;-71
2022/11/23 11:13:36;;;;;;;2.17;0.82;;;19.80;54.90;;;;;;4889503;29;20048;-71
2022/11/23 11:16:25;;;;;;;8.68;1.30;;;19.80;54.90;;;;;;4889046;29;20173;-71
2022/11/23 11:18:51;;;;;;;4.43;1.20;;;19.80;54.90;;;;;;4901017;29;20055;-71
2022/11/23 11:21:18;;;;;;;7.03;1.42;;;19.90;54.90;;;;;;4895975;29;20074;-71
2022/11/23 11:23:54;;;;;;;4.00;1.10;;;19.80;54.90;;;;;;4901112;29;20054;-71
2022/11/23 11:26:26;;;;;;;4.03;1.33;;;19.90;54.80;;;;;;4906343;29;20099;-72
2022/11/23 11:29:01;;;;;;;4.32;0.88;;;19.80;54.70;;;;;;4906157;29;20380;-72
2022/11/23 11:31:32;;;;;;;3.65;1.30;;;19.80;54.60;;;;;;4916044;29;20058;-72
2022/11/23 11:34:06;;;;;;;3.72;1.23;;;19.80;54.60;;;;;;4919734;29;20050;-72
2022/11/23 11:36:38;;;;;;;2.92;1.17;;;19.80;54.50;;;;;;4909871;29;20051;-72
2022/11/23 11:39:11;;;;;;;5.38;1.30;;;19.90;54.50;;;;;;4909915;29;20055;-72
2022/11/23 11:41:38;;;;;;;4.78;1.38;;;19.90;54.40;;;;;;4930887;29;20040;-72
2022/11/23 11:44:12;;;;;;;4.95;1.15;;;19.90;54.30;;;;;;4927044;29;20048;-72
2022/11/23 11:46:45;;;;;;;3.85;1.13;;;19.90;54.20;;;;;;4908882;29;20083;-72
2022/11/23 11:49:31;;;;;;;5.80;1.48;;;19.90;54.20;;;;;;4937093;29;20032;-72
2022/11/23 11:52:13;;;;;;;5.40;1.20;;;19.90;54.10;;;;;;4909540;29;20062;-73
2022/11/23 11:55:01;;;;;;;3.65;1.00;;;19.90;54.90;;;;;;4908584;29;20506;-73
2022/11/23 11:57:35;;;;;;;3.00;1.05;;;19.90;53.90;;;;;;4911854;29;20515;-73
2022/11/23 12:00:09;;;;;;;4.40;1.20;;;20.00;54.00;;;;;;4926347;29;20392;-73
2022/11/23 12:02:38;;;;;;;3.70;0.95;;;20.00;53.90;;;;;;4902961;29;20086;-72
2022/11/23 12:05:25;;;;;;;3.40;1.17;;;20.00;53.80;;;;;;4937510;29;20059;-72
2022/11/23 12:08:12;;;;;;;2.80;1.30;;;20.10;54.10;;;;;;4885041;29;20093;-73
2022/11/23 12:10:53;;;;;;;4.32;1.27;;;20.10;53.70;;;;;;4888151;29;20412;-73
2022/11/23 12:13:22;;;;;;;3.97;1.13;;;20.10;53.60;;;;;;4912134;29;20048;-74
2022/11/23 12:16:11;;;;;;;5.63;1.42;;;20.10;53.60;;;;;;4906417;29;20124;-72
2022/11/23 12:19:08;;;;;;;5.70;1.30;;;20.10;53.50;;;;;;4889825;29;20052;-73
2022/11/23 12:21:55;;;;;;;3.42;1.20;;;20.10;53.30;;;;;;4881900;29;20055;-73
2022/11/23 12:24:39;;;;;;;3.28;1.20;;;20.20;53.40;;;;;;4886150;29;20515;-72
2022/11/23 12:27:26;;;;;;;2.75;1.20;;;20.20;53.40;;;;;;4906520;29;20047;-73
2022/11/23 12:30:20;;;;;;;4.30;1.33;;;20.20;53.20;;;;;;4884704;29;20056;-72
2022/11/23 12:33:04;;;;;;;4.72;1.20;;;20.20;53.10;;;;;;4889928;29;20056;-73
2022/11/23 12:36:07;;;;;;;3.67;1.05;;;20.20;53.10;;;;;;4898382;29;20138;-72
2022/11/23 12:38:49;;;;;;;3.88;1.20;;;20.20;53.00;;;;;;4892069;29;21407;-71
2022/11/23 12:41:41;;;;;;;6.25;1.10;;;20.20;53.90;;;;;;4898805;29;20067;-71
2022/11/23 12:44:31;;;;;;;9.20;1.70;;;20.20;53.10;;;;;;4851351;29;20130;-70
2022/11/23 12:47:15;;;;;;;4.18;1.10;;;20.20;53.10;;;;;;4889424;29;20075;-71
2022/11/23 12:50:05;;;;;;;6.38;1.20;;;20.20;53.50;;;;;;4881628;29;20045;-70
2022/11/23 12:52:49;;;;;;;4.45;1.30;;;20.20;53.90;;;;;;4873076;29;20052;-72
2022/11/23 12:55:35;;;;;;;3.83;1.15;;;20.30;54.10;;;;;;4894268;29;20040;-71
2022/11/23 12:58:26;;;;;;;4.10;1.10;;;20.30;54.30;;;;;;4895483;29;20043;-71
2022/11/23 13:00:58;;;;;;;3.63;1.20;;;20.30;54.40;;;;;;4893885;29;20047;-70